Time;durP1;ratioP1;P1;durP2;ratioP2;P2;SDS_P1;SDS_P2;PMS_P1;PMS_P2;Temp;Humidity;BMP_temperature;BMP_pressure;BME280_temperature;BME280_humidity;BME280_pressure;Samples;Min_cycle;Max_cycle;Signal;HPM_P1;HPM_P2
2020/12/03 00:01:09;;;;;;;5.28;2.22;;;;;;;4.48;76.19;99679.50;4948614;28;20065;-72
2020/12/03 00:04:04;;;;;;;23.35;2.17;;;;;;;4.61;75.64;99675.63;4942155;28;20028;-72
2020/12/03 00:06:30;;;;;;;11.40;3.05;;;;;;;4.67;75.54;99663.84;4967867;28;20036;-70
2020/12/03 00:09:06;;;;;;;9.52;2.10;;;;;;;4.71;75.75;99666.84;5005456;28;20105;-73
2020/12/03 00:11:36;;;;;;;9.48;3.28;;;;;;;4.74;75.34;99668.25;5017429;28;20091;-74
2020/12/03 00:14:01;;;;;;;11.45;1.63;;;;;;;4.76;75.57;99658.00;5010168;28;20102;-72
2020/12/03 00:16:29;;;;;;;6.75;1.50;;;;;;;4.84;75.30;99646.75;5018601;28;20038;-70
2020/12/03 00:18:56;;;;;;;7.70;1.17;;;;;;;4.90;75.06;99633.03;5026482;28;20475;-70
2020/12/03 00:21:40;;;;;;;3.08;1.38;;;;;;;4.95;75.33;99613.34;5012701;28;20030;-70
2020/12/03 00:24:07;;;;;;;8.88;1.60;;;;;;;4.95;75.02;99613.34;5015161;28;20061;-69
2020/12/03 00:26:33;;;;;;;2.92;1.20;;;;;;;4.99;75.10;99609.03;5023131;28;20029;-72
2020/12/03 00:29:00;;;;;;;4.35;1.95;;;;;;;5.01;74.95;99603.41;5033711;28;20033;-71
2020/12/03 00:31:26;;;;;;;8.00;1.20;;;;;;;5.05;75.05;99605.34;5012136;28;20112;-72
2020/12/03 00:33:52;;;;;;;9.35;1.50;;;;;;;5.07;74.53;99592.34;5040764;28;20904;-72
2020/12/03 00:36:18;;;;;;;4.03;1.70;;;;;;;5.10;74.47;99587.53;5021548;28;20478;-73
2020/12/03 00:38:45;;;;;;;1.92;1.25;;;;;;;5.11;74.97;99597.28;5024177;28;20025;-73
2020/12/03 00:41:11;;;;;;;2.72;0.82;;;;;;;5.12;74.71;99583.47;5016690;28;20022;-72
2020/12/03 00:43:36;;;;;;;2.90;1.55;;;;;;;5.13;74.76;99585.13;5007446;28;20413;-69
2020/12/03 00:46:02;;;;;;;4.18;1.77;;;;;;;5.16;75.05;99571.06;5016296;28;20498;-69
2020/12/03 00:48:27;;;;;;;7.80;2.45;;;;;;;5.14;74.47;99564.25;4974632;28;20029;-70
2020/12/03 00:50:53;;;;;;;5.18;2.03;;;;;;;5.14;74.46;99570.50;5018955;28;20025;-69
2020/12/03 00:53:18;;;;;;;6.65;1.70;;;;;;;5.10;74.58;99558.53;5000233;28;20037;-70
2020/12/03 00:55:46;;;;;;;14.48;3.05;;;;;;;5.04;74.46;99549.50;5015136;28;20105;-69
2020/12/03 00:58:11;;;;;;;15.68;2.78;;;;;;;5.01;74.73;99539.16;5010896;28;20044;-69
2020/12/03 01:00:37;;;;;;;4.22;1.90;;;;;;;4.99;74.93;99535.88;5028236;28;20316;-70
2020/12/03 01:03:03;;;;;;;9.10;1.52;;;;;;;4.98;75.01;99526.13;5030519;28;20036;-69
2020/12/03 01:05:29;;;;;;;4.30;1.30;;;;;;;4.97;75.14;99519.06;5003375;28;20025;-69
2020/12/03 01:07:55;;;;;;;5.00;1.90;;;;;;;4.98;75.09;99515.28;5015368;28;20045;-70
2020/12/03 01:10:24;;;;;;;8.40;2.17;;;;;;;4.97;74.13;99502.81;5033526;28;20025;-69
2020/12/03 01:12:50;;;;;;;11.05;2.17;;;;;;;4.95;75.25;99491.41;4998011;28;20080;-69
2020/12/03 01:15:16;;;;;;;5.25;1.95;;;;;;;4.98;74.68;99487.34;5025332;28;20105;-70
2020/12/03 01:17:42;;;;;;;7.50;1.30;;;;;;;4.99;74.58;99483.59;5033841;28;20021;-70
2020/12/03 01:20:10;;;;;;;3.45;0.77;;;;;;;5.01;74.63;99463.31;5028074;28;20026;-69
2020/12/03 01:22:36;;;;;;;4.25;1.20;;;;;;;5.02;74.19;99453.28;4987034;28;20141;-69
2020/12/03 01:25:06;;;;;;;0.77;0.70;;;;;;;5.03;74.97;99435.94;5015960;28;20053;-69
2020/12/03 01:27:32;;;;;;;2.35;0.77;;;;;;;5.09;74.37;99434.13;5024266;28;20442;-68
2020/12/03 01:29:57;;;;;;;5.22;1.45;;;;;;;5.12;74.24;99436.31;4998623;28;20069;-78
2020/12/03 01:32:23;;;;;;;9.90;1.45;;;;;;;5.11;74.37;99429.25;5042526;28;20054;-75
2020/12/03 01:34:48;;;;;;;9.48;1.30;;;;;;;5.08;74.60;99425.16;5030457;28;20082;-69
2020/12/03 01:37:17;;;;;;;7.68;2.00;;;;;;;5.05;74.63;99415.66;5021778;28;20386;-69
2020/12/03 01:39:46;;;;;;;3.88;1.73;;;;;;;5.02;74.45;99394.50;4989648;28;20036;-69
2020/12/03 01:42:12;;;;;;;1.85;0.90;;;;;;;5.04;74.32;99392.34;5015593;28;20484;-68
2020/12/03 01:44:40;;;;;;;5.47;0.88;;;;;;;5.09;74.61;99382.63;5008497;23;20730;-73
2020/12/03 01:47:12;;;;;;;1.98;1.17;;;;;;;5.09;74.76;99371.78;4937488;23;20052;-70
2020/12/03 01:49:37;;;;;;;2.03;1.00;;;;;;;5.12;73.63;99376.69;4915481;28;20038;-74
2020/12/03 01:52:03;;;;;;;2.28;0.85;;;;;;;5.10;74.44;99370.72;4910600;28;20037;-71
2020/12/03 01:54:29;;;;;;;0.85;0.55;;;;;;;5.12;74.20;99357.72;4901204;28;20089;-73
2020/12/03 01:56:59;;;;;;;4.90;0.80;;;;;;;5.13;74.63;99360.19;4973301;28;20036;-74
2020/12/03 01:59:32;;;;;;;6.97;1.67;;;;;;;5.10;74.42;99347.13;4932960;28;20051;-74
2020/12/03 02:01:58;;;;;;;7.22;1.92;;;;;;;5.07;74.33;99334.91;4929123;28;20032;-76
2020/12/03 02:04:23;;;;;;;1.95;1.45;;;;;;;5.07;74.53;99336.81;4945792;28;20031;-75
2020/12/03 02:06:58;;;;;;;14.18;2.20;;;;;;;5.01;74.91;99327.81;4921319;28;20031;-74
2020/12/03 02:09:23;;;;;;;11.07;2.88;;;;;;;4.98;74.72;99336.47;4915432;28;20035;-75
2020/12/03 02:11:49;;;;;;;5.47;1.17;;;;;;;4.96;75.32;99332.38;4934048;28;20031;-77
2020/12/03 02:14:14;;;;;;;3.38;1.50;;;;;;;4.96;75.25;99325.03;4921542;28;20086;-76
2020/12/03 02:16:42;;;;;;;3.70;1.85;;;;;;;4.95;75.72;99326.13;4951822;28;20029;-76
2020/12/03 02:19:28;;;;;;;11.32;2.38;;;;;;;4.94;76.00;99319.06;4940726;28;20024;-68
2020/12/03 02:22:02;;;;;;;5.35;1.35;;;;;;;4.99;75.86;99308.28;4959048;28;20043;-74
2020/12/03 02:24:29;;;;;;;7.57;1.38;;;;;;;5.00;75.34;99304.50;4917796;28;20033;-70
2020/12/03 02:26:55;;;;;;;5.68;1.33;;;;;;;5.03;75.64;99297.75;4923740;28;20086;-70
2020/12/03 02:29:22;;;;;;;11.35;1.38;;;;;;;5.06;76.13;99308.88;4910397;28;20032;-69
2020/12/03 02:31:48;;;;;;;11.13;1.05;;;;;;;5.11;76.02;99299.16;4918205;28;20064;-71
2020/12/03 02:34:15;;;;;;;7.18;1.42;;;;;;;5.19;75.68;99296.81;4904144;28;20440;-69
2020/12/03 02:36:40;;;;;;;10.63;1.10;;;;;;;5.28;75.15;99289.00;4913564;28;20058;-71
2020/12/03 02:39:07;;;;;;;9.15;1.48;;;;;;;5.34;75.46;99277.13;4880840;28;20465;-71
2020/12/03 02:41:33;;;;;;;5.28;0.98;;;;;;;5.39;75.30;99279.91;4916219;28;20056;-70
2020/12/03 02:43:58;;;;;;;3.38;0.80;;;;;;;5.44;75.36;99262.03;4922977;28;20470;-68
2020/12/03 02:46:24;;;;;;;1.20;0.50;;;;;;;5.54;74.81;99253.97;4906800;28;20352;-69
2020/12/03 02:48:49;;;;;;;4.90;0.95;;;;;;;5.58;74.68;99242.34;4928813;28;20064;-69
2020/12/03 02:51:15;;;;;;;3.67;0.52;;;;;;;5.63;74.29;99225.25;4923941;28;20040;-68
2020/12/03 02:53:41;;;;;;;1.05;0.32;;;;;;;5.66;74.49;99218.50;4946781;28;20028;-68
2020/12/03 02:56:07;;;;;;;1.42;0.50;;;;;;;5.68;74.24;99200.91;4908574;28;20367;-69
2020/12/03 02:58:33;;;;;;;3.97;0.90;;;;;;;5.70;74.34;99197.91;4911877;28;20091;-69
2020/12/03 03:00:58;;;;;;;3.88;0.88;;;;;;;5.66;74.03;99186.75;4909045;28;20481;-68
2020/12/03 03:03:23;;;;;;;3.33;0.90;;;;;;;5.65;73.80;99174.31;4910688;28;20461;-69
2020/12/03 03:05:49;;;;;;;2.53;0.98;;;;;;;5.62;73.62;99174.81;4915076;28;20067;-69
2020/12/03 03:08:15;;;;;;;4.47;0.50;;;;;;;5.61;73.79;99167.78;4897996;28;20110;-69
2020/12/03 03:10:40;;;;;;;4.55;1.20;;;;;;;5.58;74.15;99149.31;4906945;28;20047;-69
2020/12/03 03:13:06;;;;;;;1.05;0.47;;;;;;;5.56;74.27;99143.31;4943341;28;20060;-69
2020/12/03 03:15:31;;;;;;;2.67;0.70;;;;;;;5.55;73.98;99139.81;4933426;28;20470;-69
2020/12/03 03:17:59;;;;;;;2.30;0.98;;;;;;;5.49;74.42;99129.19;4947721;28;20051;-70
2020/12/03 03:20:24;;;;;;;1.42;0.60;;;;;;;5.49;74.27;99118.34;4916685;28;20032;-69
2020/12/03 03:22:53;;;;;;;0.52;0.30;;;;;;;5.47;73.87;99112.38;4918480;28;20189;-69
2020/12/03 03:25:18;;;;;;;2.30;0.47;;;;;;;5.45;73.96;99114.53;4963700;28;20046;-70
2020/12/03 03:27:43;;;;;;;3.47;1.20;;;;;;;5.47;74.41;99104.25;4959888;28;20496;-68
2020/12/03 03:30:10;;;;;;;3.13;0.75;;;;;;;5.47;74.48;99096.13;4943175;28;20096;-70
2020/12/03 03:32:36;;;;;;;0.82;0.82;;;;;;;5.47;74.62;99086.06;4929249;28;20083;-70
2020/12/03 03:35:04;;;;;;;0.38;0.30;;;;;;;5.47;74.67;99072.50;4938441;28;20036;-70
2020/12/03 03:37:30;;;;;;;0.52;0.20;;;;;;;5.52;74.51;99066.28;4914200;28;20055;-69
2020/12/03 03:39:55;;;;;;;1.98;0.43;;;;;;;5.53;74.35;99062.50;4930282;28;20165;-70
2020/12/03 03:42:21;;;;;;;0.63;0.30;;;;;;;5.56;74.46;99056.53;4918357;28;20054;-70
2020/12/03 03:44:46;;;;;;;0.28;0.10;;;;;;;5.58;74.20;99052.50;4914263;28;20038;-70
2020/12/03 03:47:11;;;;;;;0.20;0.20;;;;;;;5.59;74.25;99040.56;4914416;28;20052;-69
2020/12/03 03:49:37;;;;;;;1.55;0.90;;;;;;;5.56;74.49;99029.44;4913134;28;20039;-69
2020/12/03 03:52:02;;;;;;;2.50;0.47;;;;;;;5.57;74.60;99025.66;4904624;28;20398;-69
2020/12/03 03:54:28;;;;;;;0.30;0.20;;;;;;;5.58;74.50;99011.00;4905860;28;20055;-68
2020/12/03 03:56:53;;;;;;;7.65;1.30;;;;;;;5.59;74.54;98999.06;4914942;28;20036;-69
2020/12/03 03:59:19;;;;;;;3.83;0.70;;;;;;;5.59;74.87;98994.47;4920157;28;20020;-70
2020/12/03 04:01:44;;;;;;;7.43;1.25;;;;;;;5.58;74.60;98995.53;4922754;28;20047;-67
2020/12/03 04:04:10;;;;;;;2.95;0.85;;;;;;;5.60;75.30;98987.13;4886818;28;20028;-70
2020/12/03 04:06:35;;;;;;;0.60;0.30;;;;;;;5.63;74.62;98980.38;4957059;28;20040;-71
2020/12/03 04:09:02;;;;;;;3.35;1.02;;;;;;;5.64;74.87;98977.38;4909168;28;20032;-70
2020/12/03 04:11:27;;;;;;;7.82;0.57;;;;;;;5.68;74.80;98966.81;4912300;28;20040;-70
2020/12/03 04:13:53;;;;;;;6.57;0.90;;;;;;;5.69;75.06;98961.09;4913722;28;20040;-72
2020/12/03 04:16:18;;;;;;;2.95;1.13;;;;;;;5.71;75.08;98958.97;4925665;28;20043;-73
2020/12/03 04:18:43;;;;;;;3.67;1.08;;;;;;;5.71;74.72;98945.41;4924062;28;20028;-74
2020/12/03 04:21:10;;;;;;;1.75;0.85;;;;;;;5.71;75.13;98945.41;4904953;28;20087;-75
2020/12/03 04:23:36;;;;;;;2.03;0.70;;;;;;;5.71;75.35;98934.53;4927880;28;20452;-73
2020/12/03 04:26:02;;;;;;;6.80;0.60;;;;;;;5.70;75.29;98932.91;4919177;28;20058;-74
2020/12/03 04:28:28;;;;;;;5.53;1.05;;;;;;;5.69;75.02;98925.84;4918821;28;20028;-74
2020/12/03 04:30:55;;;;;;;5.97;1.77;;;;;;;5.64;76.48;98923.16;4909205;28;20082;-73
2020/12/03 04:33:20;;;;;;;2.17;1.08;;;;;;;5.65;76.43;98908.50;4912596;28;20024;-74
2020/12/03 04:35:47;;;;;;;8.85;1.30;;;;;;;5.66;76.26;98888.41;4920633;28;20031;-75
2020/12/03 04:38:14;;;;;;;8.32;1.27;;;;;;;5.69;76.42;98885.16;4904873;28;20071;-74
2020/12/03 04:40:42;;;;;;;4.18;1.17;;;;;;;5.71;76.89;98874.88;4927311;28;20032;-74
2020/12/03 04:43:26;;;;;;;11.57;0.90;;;;;;;5.76;76.33;98868.63;4945829;28;20032;-74
2020/12/03 04:45:58;;;;;;;3.22;1.00;;;;;;;5.76;76.47;98857.78;4916672;28;20030;-74
2020/12/03 04:48:39;;;;;;;4.43;0.75;;;;;;;5.76;76.77;98849.66;4941824;28;20049;-75
2020/12/03 04:51:37;;;;;;;6.13;1.20;;;;;;;5.75;76.41;98827.13;4934483;28;20098;-74
2020/12/03 04:54:32;;;;;;;0.88;0.40;;;;;;;5.78;76.79;98814.91;4933403;28;20024;-74
2020/12/03 04:57:30;;;;;;;0.85;0.32;;;;;;;5.83;76.52;98806.78;4909777;28;20370;-74
2020/12/03 05:00:12;;;;;;;0.65;0.50;;;;;;;5.86;76.36;98800.00;4917311;28;20031;-74
2020/12/03 05:02:38;;;;;;;3.63;0.65;;;;;;;5.89;76.60;98804.88;4929809;28;20093;-75
2020/12/03 05:05:25;;;;;;;0.90;0.47;;;;;;;5.88;76.32;98789.66;4917132;28;20420;-75
2020/12/03 05:08:00;;;;;;;4.03;0.60;;;;;;;5.88;76.70;98781.53;4916761;28;20501;-75
2020/12/03 05:10:38;;;;;;;1.77;1.33;;;;;;;5.86;76.54;98772.88;4926886;28;20031;-75
2020/12/03 05:13:03;;;;;;;1.65;0.50;;;;;;;5.84;76.79;98769.59;4916917;28;20032;-76
2020/12/03 05:15:32;;;;;;;2.17;0.40;;;;;;;5.81;76.42;98753.88;4904736;28;20031;-69
2020/12/03 05:18:29;;;;;;;1.95;0.77;;;;;;;5.82;76.75;98750.88;4925255;28;20061;-70
2020/12/03 05:21:02;;;;;;;3.72;0.47;;;;;;;5.81;76.66;98743.84;4917469;28;20489;-71
2020/12/03 05:23:30;;;;;;;0.75;0.20;;;;;;;5.82;76.88;98737.31;4966258;28;20046;-71
2020/12/03 05:25:57;;;;;;;5.72;0.88;;;;;;;5.84;76.54;98709.91;4924095;28;20032;-71
2020/12/03 05:28:36;;;;;;;6.28;0.80;;;;;;;5.86;76.82;98696.91;4915648;28;20096;-71
2020/12/03 05:31:11;;;;;;;5.05;0.82;;;;;;;5.84;77.41;98693.63;4912124;28;20024;-71
2020/12/03 05:33:36;;;;;;;2.70;0.95;;;;;;;5.82;77.23;98693.91;4932026;28;20481;-70
2020/12/03 05:36:03;;;;;;;1.45;0.77;;;;;;;5.81;77.00;98688.78;4934430;28;20043;-69
2020/12/03 05:38:28;;;;;;;4.03;0.70;;;;;;;5.82;77.49;98666.78;4937460;28;20048;-71
2020/12/03 05:40:59;;;;;;;1.08;0.30;;;;;;;5.83;77.01;98663.00;4968029;28;20036;-71
2020/12/03 05:43:24;;;;;;;1.65;0.60;;;;;;;5.81;77.68;98657.06;4923430;28;20082;-70
2020/12/03 05:45:52;;;;;;;1.13;0.60;;;;;;;5.80;77.74;98649.16;4937672;28;20027;-72
2020/12/03 05:48:19;;;;;;;3.10;0.60;;;;;;;5.82;77.29;98647.00;4925142;28;20385;-73
2020/12/03 05:50:45;;;;;;;5.15;0.50;;;;;;;5.84;77.45;98633.97;4960862;28;20043;-74
2020/12/03 05:53:20;;;;;;;2.33;0.57;;;;;;;5.86;77.42;98612.81;4934649;28;20032;-73
2020/12/03 05:55:47;;;;;;;7.40;1.03;;;;;;;5.85;78.10;98619.31;4958921;28;20020;-75
2020/12/03 05:58:12;;;;;;;5.07;1.35;;;;;;;5.85;77.43;98603.03;4918227;28;20545;-74
2020/12/03 06:00:39;;;;;;;0.40;0.25;;;;;;;5.86;77.59;98599.25;4910386;28;20059;-73
2020/12/03 06:03:25;;;;;;;1.85;1.00;;;;;;;5.86;77.28;98589.19;4918616;28;20043;-73
2020/12/03 06:05:50;;;;;;;9.98;0.60;;;;;;;5.87;77.86;98590.00;4947883;28;20426;-73
2020/12/03 06:08:50;;;;;;;1.42;0.82;;;;;;;5.87;77.65;98579.16;4923995;28;20199;-74
2020/12/03 06:11:37;;;;;;;5.00;0.68;;;;;;;5.87;77.56;98560.16;4936633;28;20091;-74
2020/12/03 06:14:22;;;;;;;1.90;0.57;;;;;;;5.85;77.84;98549.59;4952228;28;20052;-72
2020/12/03 06:16:58;;;;;;;1.75;0.60;;;;;;;5.87;77.79;98542.00;4913495;28;20032;-74
2020/12/03 06:19:53;;;;;;;7.18;1.08;;;;;;;5.88;77.90;98534.66;4915692;28;20020;-73
2020/12/03 06:22:32;;;;;;;6.80;1.10;;;;;;;5.87;78.24;98527.59;4934570;28;20434;-74
2020/12/03 06:25:19;;;;;;;6.25;0.90;;;;;;;5.89;78.15;98518.09;4921649;28;20855;-74
2020/12/03 06:28:03;;;;;;;5.90;0.85;;;;;;;5.89;77.92;98506.44;4953913;28;20067;-74
2020/12/03 06:31:08;;;;;;;1.52;0.90;;;;;;;5.88;77.96;98504.81;4946344;28;20014;-74
2020/12/03 06:33:38;;;;;;;2.58;0.70;;;;;;;5.89;78.44;98501.03;4989564;28;20109;-74
2020/12/03 06:36:21;;;;;;;4.43;0.57;;;;;;;5.90;78.39;98486.38;4978848;28;20028;-75
2020/12/03 06:38:55;;;;;;;2.42;0.95;;;;;;;5.91;78.77;98471.69;4954326;28;20740;-75
2020/12/03 06:41:35;;;;;;;1.30;0.63;;;;;;;5.90;78.92;98464.66;4926253;28;20110;-74
2020/12/03 06:44:13;;;;;;;0.95;0.63;;;;;;;5.94;78.56;98454.84;4919754;28;20485;-73
2020/12/03 06:46:45;;;;;;;6.93;1.45;;;;;;;5.96;79.02;98441.81;4933594;28;20036;-74
2020/12/03 06:49:40;;;;;;;2.05;0.68;;;;;;;5.96;78.95;98447.25;4936368;28;20077;-74
2020/12/03 06:52:36;;;;;;;1.30;0.43;;;;;;;5.98;78.84;98436.16;4923651;28;20096;-74
2020/12/03 06:55:30;;;;;;;9.45;1.25;;;;;;;5.99;79.15;98416.88;4917180;28;20032;-73
2020/12/03 06:58:09;;;;;;;5.38;0.55;;;;;;;6.03;79.25;98412.50;4917500;28;20036;-73
2020/12/03 07:01:07;;;;;;;1.73;0.50;;;;;;;6.06;78.93;98409.22;4968407;28;20084;-72
2020/12/03 07:03:52;;;;;;;3.45;0.60;;;;;;;6.09;79.22;98397.78;4915066;28;20127;-72
2020/12/03 07:06:42;;;;;;;1.90;0.30;;;;;;;6.13;78.92;98376.28;4922936;28;20043;-72
2020/12/03 07:09:55;;;;;;;7.35;0.88;;;;;;;6.16;79.53;98356.72;4952812;28;20273;-72
2020/12/03 07:12:39;;;;;;;1.95;0.68;;;;;;;6.15;80.07;98362.44;4903392;28;20523;-71
2020/12/03 07:15:20;;;;;;;1.50;0.50;;;;;;;6.13;79.52;98359.22;4915622;28;20035;-72
2020/12/03 07:17:48;;;;;;;4.22;0.70;;;;;;;6.15;79.75;98341.53;4919088;28;20020;-72
2020/12/03 07:20:19;;;;;;;1.27;0.50;;;;;;;6.16;80.10;98331.50;4922846;28;20031;-73
2020/12/03 07:23:04;;;;;;;3.60;0.57;;;;;;;6.18;80.41;98332.81;4921810;28;20044;-78
2020/12/03 07:25:29;;;;;;;1.65;0.73;;;;;;;6.16;80.33;98326.06;4924066;28;20038;-73
2020/12/03 07:27:57;;;;;;;1.30;0.50;;;;;;;6.19;80.21;98320.06;4926630;28;20148;-73
2020/12/03 07:30:29;;;;;;;1.60;0.40;;;;;;;6.20;80.20;98316.25;4913405;28;20082;-74
2020/12/03 07:33:50;;;;;;;3.45;0.52;;;;;;;6.23;80.48;98310.25;4934686;28;20090;-74
2020/12/03 07:36:20;;;;;;;4.57;1.67;;;;;;;6.20;80.78;98311.63;4925770;28;20162;-74
2020/12/03 07:38:57;;;;;;;1.38;0.52;;;;;;;6.19;81.40;98298.34;4928993;28;20036;-72
2020/12/03 07:41:27;;;;;;;9.93;1.20;;;;;;;6.20;80.96;98281.78;4939291;28;20071;-71
2020/12/03 07:44:23;;;;;;;11.05;1.17;;;;;;;6.22;81.06;98270.63;4927272;28;20103;-72
2020/12/03 07:46:51;;;;;;;2.78;0.70;;;;;;;6.20;81.88;98272.81;4929270;28;20099;-70
2020/12/03 07:49:44;;;;;;;9.52;1.02;;;;;;;6.19;81.76;98263.88;4943798;28;20044;-71
2020/12/03 07:52:30;;;;;;;4.82;0.82;;;;;;;6.15;82.01;98253.88;4931091;28;20044;-70
2020/12/03 07:55:21;;;;;;;2.25;0.40;;;;;;;6.15;82.27;98234.88;4941303;28;20040;-71
2020/12/03 07:57:58;;;;;;;4.53;0.77;;;;;;;6.08;81.87;98222.47;4932324;28;20086;-71
2020/12/03 08:00:24;;;;;;;1.02;0.45;;;;;;;6.13;82.29;98223.53;4922958;28;20087;-69
2020/12/03 08:02:52;;;;;;;3.67;0.55;;;;;;;6.13;82.17;98224.31;4919724;28;20040;-77
2020/12/03 08:05:40;;;;;;;2.08;0.80;;;;;;;6.07;82.29;98215.44;4919880;28;20465;-72
2020/12/03 08:08:28;;;;;;;1.15;0.20;;;;;;;6.10;82.03;98204.03;4930305;28;20062;-73
2020/12/03 08:10:54;;;;;;;1.95;0.28;;;;;;;6.13;82.04;98190.97;4952599;28;20044;-74
2020/12/03 08:13:31;;;;;;;0.55;0.20;;;;;;;6.17;82.11;98181.16;4923144;28;20385;-73
2020/12/03 08:16:10;;;;;;;1.95;0.45;;;;;;;6.17;82.22;98167.56;4924028;28;20043;-76
2020/12/03 08:18:41;;;;;;;0.80;0.30;;;;;;;6.17;82.19;98173.78;4914334;28;20128;-73
2020/12/03 08:21:07;;;;;;;1.30;0.40;;;;;;;6.15;82.06;98162.44;4922175;28;20039;-72
2020/12/03 08:23:33;;;;;;;1.02;0.32;;;;;;;6.18;82.24;98145.56;4913481;28;20032;-74
2020/12/03 08:25:58;;;;;;;2.20;0.43;;;;;;;6.18;82.00;98144.78;4918245;28;20056;-73
2020/12/03 08:28:28;;;;;;;0.43;0.17;;;;;;;6.20;82.14;98134.41;4976440;28;20036;-74
2020/12/03 08:30:54;;;;;;;3.63;0.63;;;;;;;6.19;81.65;98130.91;4960014;28;20122;-73
2020/12/03 08:33:30;;;;;;;1.30;0.68;;;;;;;6.20;82.16;98120.84;4940212;28;20062;-74
2020/12/03 08:36:01;;;;;;;1.10;0.40;;;;;;;6.19;82.18;98111.09;4924527;28;20024;-73
2020/12/03 08:38:31;;;;;;;2.45;0.40;;;;;;;6.23;81.96;98098.53;4913998;28;20051;-73
2020/12/03 08:41:00;;;;;;;1.40;0.25;;;;;;;6.24;82.24;98089.31;4948840;28;20032;-73
2020/12/03 08:43:27;;;;;;;2.03;0.35;;;;;;;6.24;82.22;98073.81;4920338;28;20028;-74
2020/12/03 08:46:07;;;;;;;2.10;1.00;;;;;;;6.25;82.15;98058.34;4916075;28;20107;-73
2020/12/03 08:48:37;;;;;;;4.15;0.63;;;;;;;6.26;82.43;98049.09;4922160;28;20043;-73
2020/12/03 08:51:07;;;;;;;6.18;1.17;;;;;;;6.27;81.96;98046.09;4910556;28;20033;-73
2020/12/03 08:53:34;;;;;;;0.77;0.40;;;;;;;6.27;82.14;98039.88;4919097;28;20397;-74
2020/12/03 08:56:11;;;;;;;2.42;0.57;;;;;;;6.28;82.25;98031.44;4913588;28;20021;-73
2020/12/03 08:58:37;;;;;;;1.35;0.98;;;;;;;6.31;82.54;98012.91;4917540;28;20077;-74
2020/12/03 09:01:04;;;;;;;6.80;0.70;;;;;;;6.31;82.12;98008.31;4927299;28;20035;-74
2020/12/03 09:03:35;;;;;;;2.88;1.08;;;;;;;6.32;82.65;98009.91;4912954;28;20125;-73
2020/12/03 09:06:01;;;;;;;1.38;0.65;;;;;;;6.33;82.75;97995.25;4913004;28;20041;-73
2020/12/03 09:08:26;;;;;;;0.82;0.32;;;;;;;6.34;82.60;97986.00;4934816;28;20037;-74
2020/12/03 09:10:57;;;;;;;0.47;0.47;;;;;;;6.34;82.25;97975.16;4911059;28;20043;-72
2020/12/03 09:13:23;;;;;;;1.00;0.75;;;;;;;6.36;82.64;97962.06;4915247;28;20028;-73
2020/12/03 09:15:52;;;;;;;0.80;0.80;;;;;;;6.38;82.22;97956.34;4914925;28;20040;-74
2020/12/03 09:18:18;;;;;;;1.02;0.30;;;;;;;6.40;82.79;97952.22;4913203;28;20725;-74
2020/12/03 09:20:47;;;;;;;0.20;0.13;;;;;;;6.44;82.43;97944.31;4915799;28;20083;-73
2020/12/03 09:23:16;;;;;;;0.52;0.30;;;;;;;6.41;82.89;97934.84;4943485;28;20036;-74
2020/12/03 09:25:42;;;;;;;1.05;0.45;;;;;;;6.44;82.84;97926.09;4966968;28;20034;-74
2020/12/03 09:28:08;;;;;;;0.82;0.40;;;;;;;6.47;82.54;97919.28;4900746;28;20084;-73
2020/12/03 09:30:34;;;;;;;4.57;0.75;;;;;;;6.48;82.34;97915.44;4917705;28;20466;-74
2020/12/03 09:33:02;;;;;;;0.70;0.45;;;;;;;6.49;82.39;97905.41;4914344;28;20428;-73
2020/12/03 09:35:31;;;;;;;1.13;0.45;;;;;;;6.46;82.84;97902.16;4912469;28;20120;-72
2020/12/03 09:38:00;;;;;;;0.70;0.60;;;;;;;6.48;82.51;97877.41;4907988;28;20040;-74
2020/12/03 09:40:27;;;;;;;4.85;0.60;;;;;;;6.52;81.97;97866.78;4920454;28;20496;-73
2020/12/03 09:42:53;;;;;;;0.70;0.40;;;;;;;6.57;82.34;97853.09;4917327;28;20120;-74
2020/12/03 09:45:23;;;;;;;2.35;0.95;;;;;;;6.58;82.21;97854.69;4926418;28;20042;-75
2020/12/03 09:47:50;;;;;;;0.70;0.50;;;;;;;6.58;82.79;97843.84;4926002;28;20034;-74
2020/12/03 09:50:15;;;;;;;0.80;0.52;;;;;;;6.60;82.78;97836.19;4916093;28;20428;-74
2020/12/03 09:52:42;;;;;;;1.35;0.40;;;;;;;6.64;82.64;97829.03;4898740;28;20116;-75
2020/12/03 09:55:10;;;;;;;1.90;0.50;;;;;;;6.66;82.53;97824.13;4939717;28;20039;-73
2020/12/03 09:57:36;;;;;;;1.48;0.40;;;;;;;6.66;82.00;97813.28;4908185;28;20039;-73
2020/12/03 10:00:07;;;;;;;0.95;0.73;;;;;;;6.68;82.36;97805.59;4914680;28;20024;-73
2020/12/03 10:03:08;;;;;;;0.77;0.73;;;;;;;6.70;82.68;97784.41;4914822;28;20159;-73
2020/12/03 10:05:48;;;;;;;0.40;0.38;;;;;;;6.70;82.44;97776.25;4899680;28;20166;-72
2020/12/03 10:08:40;;;;;;;0.90;0.70;;;;;;;6.73;82.52;97759.34;4916930;28;20505;-73
2020/12/03 10:11:48;;;;;;;0.75;0.63;;;;;;;6.74;82.55;97752.78;4913116;28;20036;-74
2020/12/03 10:14:51;;;;;;;0.50;0.50;;;;;;;6.78;82.17;97740.19;4937247;28;20014;-75
2020/12/03 10:17:18;;;;;;;2.85;0.73;;;;;;;6.75;83.26;97724.53;4938874;28;20071;-73
2020/12/03 10:19:46;;;;;;;0.75;0.60;;;;;;;6.74;83.23;97712.03;4918818;28;20116;-75
2020/12/03 10:22:26;;;;;;;1.27;0.45;;;;;;;6.82;83.47;97718.66;4940853;28;20501;-73
2020/12/03 10:24:55;;;;;;;0.60;0.50;;;;;;;6.87;83.43;97701.44;4914654;28;20039;-73
2020/12/03 10:27:30;;;;;;;3.85;2.42;;;;;;;6.91;83.37;97699.72;4925029;28;20033;-76
2020/12/03 10:30:00;;;;;;;1.73;1.63;;;;;;;6.94;83.01;97680.09;4916252;28;20013;-74
2020/12/03 10:32:27;;;;;;;0.90;0.90;;;;;;;7.00;82.54;97681.56;4947412;28;20174;-75
2020/12/03 10:34:54;;;;;;;0.50;0.47;;;;;;;7.02;82.38;97668.44;4917100;28;20052;-74
2020/12/03 10:37:33;;;;;;;0.40;0.40;;;;;;;7.05;82.29;97654.25;4917043;28;20083;-74
2020/12/03 10:40:13;;;;;;;0.90;0.45;;;;;;;7.07;82.74;97649.31;4916348;28;20020;-75
2020/12/03 10:42:44;;;;;;;0.50;0.50;;;;;;;7.05;82.50;97640.66;4924037;28;20485;-75
2020/12/03 10:45:17;;;;;;;1.08;0.90;;;;;;;7.07;82.61;97627.59;4917393;28;20402;-73
2020/12/03 10:47:48;;;;;;;2.05;0.77;;;;;;;7.08;82.43;97618.31;4951862;28;20131;-74
2020/12/03 10:50:16;;;;;;;0.45;0.45;;;;;;;7.08;82.86;97610.16;4917294;28;20106;-76
2020/12/03 10:52:44;;;;;;;1.10;0.95;;;;;;;7.14;82.45;97595.31;4919714;28;20060;-73
2020/12/03 10:55:10;;;;;;;2.20;0.70;;;;;;;7.16;83.06;97598.53;4929987;28;20418;-74
2020/12/03 10:57:41;;;;;;;1.08;1.08;;;;;;;7.20;82.81;97581.59;4909810;28;20030;-75
2020/12/03 11:00:08;;;;;;;1.60;0.75;;;;;;;7.21;81.99;97566.91;4917439;29;20121;-74
2020/12/03 11:02:45;;;;;;;0.63;0.50;;;;;;;7.20;82.95;97554.41;4921529;28;20063;-76
2020/12/03 11:05:12;;;;;;;1.48;0.80;;;;;;;7.24;82.48;97548.06;4913562;28;20509;-74
2020/12/03 11:07:39;;;;;;;0.63;0.63;;;;;;;7.27;82.16;97538.44;4920640;28;20086;-73
2020/12/03 11:10:05;;;;;;;0.90;0.85;;;;;;;7.29;82.64;97525.38;4911163;28;20359;-73
2020/12/03 11:12:31;;;;;;;1.10;1.00;;;;;;;7.30;82.63;97525.03;4913471;28;20493;-73
2020/12/03 11:15:03;;;;;;;4.28;1.13;;;;;;;7.33;82.07;97520.91;4916038;28;20431;-73
2020/12/03 11:17:47;;;;;;;2.72;0.50;;;;;;;7.36;82.26;97505.84;4928070;28;20038;-74
2020/12/03 11:20:16;;;;;;;1.70;1.60;;;;;;;7.37;82.19;97483.78;4917739;28;20028;-73
2020/12/03 11:22:47;;;;;;;0.98;0.98;;;;;;;7.40;81.83;97483.16;4914918;28;20473;-74
2020/12/03 11:25:13;;;;;;;1.25;1.15;;;;;;;7.46;82.24;97476.47;4909467;28;20095;-74
2020/12/03 11:27:41;;;;;;;1.42;0.63;;;;;;;7.55;82.22;97462.06;4907500;28;20129;-74
2020/12/03 11:30:18;;;;;;;0.80;0.80;;;;;;;7.63;82.20;97450.41;4917656;28;20040;-74
2020/12/03 11:32:57;;;;;;;0.85;0.85;;;;;;;7.65;81.97;97440.00;4931868;28;20030;-75
2020/12/03 11:35:34;;;;;;;1.10;1.10;;;;;;;7.71;81.15;97427.84;4911869;29;20055;-74
2020/12/03 11:38:02;;;;;;;1.13;1.02;;;;;;;7.72;81.23;97413.13;4916283;28;20123;-74
2020/12/03 11:40:40;;;;;;;0.95;0.80;;;;;;;7.73;81.53;97409.28;4936530;28;20055;-74
2020/12/03 11:48:43;;;;;;;1.02;0.98;;;;;;;7.77;80.75;97372.16;4917331;28;20059;-73
2020/12/03 11:51:50;;;;;;;1.70;1.30;;;;;;;7.78;81.68;97356.63;4917126;28;20047;-73
2020/12/03 11:54:16;;;;;;;0.68;0.40;;;;;;;7.78;81.19;97352.00;4934760;28;20059;-74
2020/12/03 11:56:41;;;;;;;0.20;0.20;;;;;;;7.78;81.15;97343.03;4929953;28;20024;-74
2020/12/03 11:59:17;;;;;;;3.88;0.52;;;;;;;7.80;81.29;97333.44;4918040;28;20373;-75
2020/12/03 12:01:58;;;;;;;0.77;0.47;;;;;;;7.77;81.34;97312.31;4908014;28;20039;-73
2020/12/03 12:05:19;;;;;;;2.10;0.45;;;;;;;7.82;81.29;97309.41;4929601;28;20066;-75
2020/12/03 12:12:38;;;;;;;0.20;0.20;;;;;;;7.83;81.71;97283.81;4913673;28;20032;-74
2020/12/03 12:15:04;;;;;;;0.73;0.20;;;;;;;7.82;80.95;97275.97;4939536;28;20029;-76